Ana Sayfa
METAR-TAF:

METAR-TAF

Havaalanları :

Konakri, Gine

Konakri Uluslararası Havalimanı

Enlem: 09-34N, Boylam: 013-37W, yükseklik: 26 m

Güncel hava durumu gözlemi

Rapor saat 01:00 UTC de 1 saat ve 9 dakika önce yapıldı.
Sakin rüzgar
Sıcaklık 27°C
Nem 79%
Basınç 1011 hPa
Görüş mesafesi 10 km veya daha fazla
1500 m altında bulut yok ve kümülonimbus yok

METAR: GUCY 260100Z 00000KT CAVOK 27/23 Q1011 NOSIG

Saat: 02:09 (02:09 UTC)

Tahmin

Rapor saat 23:00 UTC de 3 saat ve 9 dakika önce yapıldı.
Ayın 26'si saat 00 UTC'den ayın 27'si saat 06 UTC'ye kadar geçerli Tahmin
Rüzgar batıdan 6 kt
Görüş mesafesi 10 km veya daha fazla
1500 ft yükseklikte az bulutlu
Geçici
ayın 26'si saat 02 UTC'den ayın 26'si saat 09 UTC'ye kadar
Rüzgar değişken yönden 2 kt
Geçici
olarak saat CA ve VO UTC arası

TAF: GUCY 252300Z 2600/2706 28006KT 9999 FEW015 TEMPO 2602/2609 VRB02KT TEMPO CAVOK

4.000'den fazla havaalanı için hava durumu gözlemleri ve tahminleri (METAR ve TAF raporları).

Kullanılabilir istasyonlar harita üzerinde sarı ve kırmızı noktalarla gösterilir.

İstasyonun adını görmek için fareyi noktanın üzerinde gezdirin.

Sonrasında hava gözlem ve tahminlerini görmek için tıklayın.

Haritayı değiştirmek için: yaklaştırmak için siyah artı işaretli yeşil düğmeye ve uzaklaştırmak için de eksi işaretli düğmeye hızla tıklayın; bitişik haritalar için yeşil okları kullanın.


METAR-TAF: